Terminal Aerodrome Forecast
Issued by NWS Shreveport, LA

Home | Current Version | Previous Version | Text Only | Print | Product List | Glossary On
Versions: 1 2 3 4 5 6 7 8 9 10 11 12 13
327
FTUS44 KSHV 132342
TAFTXK
TAF
KTXK 132342Z 1400/1424 11006KT P6SM FEW040 BKN060
      TEMPO 1402/1406 BKN040
     FM140600 13008KT P6SM BKN035 BKN250
     FM141500 15010KT P6SM OVC025=

USA.gov is the U.S. government's official web portal to all federal, state and local government web resources and services.